Etusivu
METAR-TAF:

METAR-TAF

Lentoasemat :

Audubon County Airport

Audubon, Iowa, Yhdysvallat

Leveyspiiri: 41-42-04N, Pituuspiiri: 094-55-13W, korkeus merenpinnasta: 392 m

Tämänhetkinen sää

Tämä raportti tehtiin 13 minuuttia sitten, kello 12.55 UTC
Tuuli 4 kn lännestä
Lämpötila 17°C
Kosteus 59%
Ilmanpaine 1010 hPa
Näkyvyys: 16.1 km
Hajonneita pilviä 10000 ft:n korkeudessa
heikkoa sadetta

METAR: KADU 271255Z AUTO 28004KT 10SM -RA BKN100 17/09 A2983 RMK AO2

Aika: 08:08 (13:08 UTC)


TAF: puuttuu

Säähavainnot ja -ennusteet yli 4000 lentoasemalta (METAR- ja TAF-raportit).

Käytössä olevat sääasemat on merkitty karttaan keltaisilla ja punaisilla pisteillä.

Aseta hiiri pisteen päälle nähdäksesi sääaseman nimen.

Klikkaa sitten nähdäksesi säähavainnot ja -ennusteet.

Kartan vaihtaminen: klikkaa mustalla rastilla varustettuja vihreitä pisteitä, niin voit zoomata sisään; viivalla varustettua vihreää pistettä, niin voit zoomata ulos tai vihreitä nuolia, niin pääset viereisille kartoille.


METAR-TAF: